Centreville, Canada
Current Conditions -  °F | °C
As of 11:22 AM on Thursday 30 Oct 2014 (Local Time) from KHUL Reporting Station
Broken Clouds Broken Clouds  
Wind Chill: 43°   Ceiling: 2100
Heat Index: 47°   Visibility: 10mi
Dew Point: 39°   Wind: 8mph
Humidity: 74%   Direction: 310°NW
Pressure: 29.82"   Gusts: NA
Location:  46.43°N, 67.72°W
Report Text: KHUL 301422Z AUTO 31007KT 10SM BKN021 08/04 A2982 RMK AO2 T00830039
Loading
Personal Weather Stations






























Interactive Weather Map
Tropical Storm Tracking
New forecast layout! Learn more

10-Day Weather Forecast

Advertisements
Track Severe Weather on mobile